Time;durP1;ratioP1;P1;durP2;ratioP2;P2;SDS_P1;SDS_P2;PMS_P1;PMS_P2;Temp;Humidity;BMP_temperature;BMP_pressure;BME280_temperature;BME280_humidity;BME280_pressure;Samples;Min_cycle;Max_cycle;Signal;HPM_P1;HPM_P2
2021/08/18 00:01:08;;;;;;;;;0.00;0.00;;;;;17.32;66.39;101690.53;5046183;28;45439;-85
2021/08/18 00:03:34;;;;;;;;;0.00;0.00;;;;;17.32;66.58;101687.91;5041789;28;48366;-85
2021/08/18 00:05:59;;;;;;;;;0.00;0.00;;;;;16.55;66.53;101566.31;5035804;28;45473;-85
2021/08/18 00:08:25;;;;;;;;;0.00;0.00;;;;;17.29;66.44;101686.19;5044189;28;45398;-85
2021/08/18 00:10:51;;;;;;;;;0.00;0.00;;;;;17.04;66.31;101638.00;5056521;28;45468;-86
2021/08/18 00:13:18;;;;;;;;;0.00;0.00;;;;;17.35;66.30;101677.38;5051084;28;45359;-85
2021/08/18 00:15:43;;;;;;;;;0.25;0.25;;;;;17.34;66.52;101668.59;5048711;28;45528;-85
2021/08/18 00:18:09;;;;;;;;;0.00;0.00;;;;;16.83;66.87;101596.03;5043642;28;45229;-85
2021/08/18 00:20:37;;;;;;;;;0.00;0.00;;;;;16.99;66.41;101608.25;5039713;28;45603;-85
2021/08/18 00:23:02;;;;;;;;;0.00;0.00;;;;;17.35;66.92;101670.38;5055671;28;45586;-85
2021/08/18 00:25:28;;;;;;;;;0.00;0.00;;;;;17.36;65.84;101665.97;5054251;28;45706;-85
2021/08/18 00:27:54;;;;;;;;;0.00;0.00;;;;;17.21;66.48;101643.22;5045828;28;45949;-85
2021/08/18 00:30:19;;;;;;;;;0.00;0.00;;;;;17.12;66.24;101622.25;5043300;28;45459;-84
2021/08/18 00:32:45;;;;;;;;;0.00;0.00;;;;;17.44;66.00;101666.81;5041532;28;46682;-84
2021/08/18 00:35:11;;;;;;;;;0.00;0.00;;;;;17.33;66.08;101652.81;5039778;28;45456;-83
2021/08/18 00:37:36;;;;;;;;;0.00;0.00;;;;;17.38;66.18;101660.69;5055790;28;45467;-85
2021/08/18 00:40:02;;;;;;;;;0.00;0.00;;;;;17.35;66.00;101651.06;5054168;28;45630;-85
2021/08/18 00:42:28;;;;;;;;;0.00;0.00;;;;;17.33;66.12;101658.06;5055738;28;47024;-84
2021/08/18 00:44:54;;;;;;;;;0.00;0.00;;;;;17.08;66.18;101621.38;5043315;28;45600;-85
2021/08/18 00:47:19;;;;;;;;;0.00;0.00;;;;;17.11;66.25;101610.81;5054571;28;45719;-84
2021/08/18 00:49:44;;;;;;;;;0.00;0.00;;;;;17.13;65.88;101605.56;5042334;28;45540;-84
2021/08/18 00:52:10;;;;;;;;;1.00;0.00;;;;;17.31;65.92;101647.56;5054031;28;45457;-85
2021/08/18 00:54:35;;;;;;;;;0.00;0.00;;;;;17.31;65.66;101646.69;5051261;28;45452;-84
2021/08/18 00:57:02;;;;;;;;;0.00;0.00;;;;;17.39;65.89;101659.81;5050279;28;56662;-85
2021/08/18 00:59:30;;;;;;;;;0.00;0.00;;;;;17.39;66.01;101657.19;5055902;28;45276;-85
2021/08/18 01:01:55;;;;;;;;;0.00;0.00;;;;;17.06;66.22;101609.97;5053111;28;45383;-85
2021/08/18 01:04:20;;;;;;;;;0.00;0.00;;;;;17.34;65.85;101659.84;5050813;28;45364;-85
2021/08/18 01:06:46;;;;;;;;;0.00;0.00;;;;;17.34;65.94;101665.09;5043037;28;45493;-85
2021/08/18 01:09:16;;;;;;;;;0.00;0.00;;;;;17.31;66.30;101658.06;5045309;28;45419;-84
2021/08/18 01:11:44;;;;;;;;;0.00;0.00;;;;;17.38;66.05;101664.19;5054046;28;46244;-85
2021/08/18 01:14:10;;;;;;;;;0.00;0.00;;;;;17.16;66.05;101623.97;5038106;28;45569;-85
2021/08/18 01:16:37;;;;;;;;;0.00;0.00;;;;;17.36;65.95;101663.31;5039334;28;45383;-85
2021/08/18 01:19:04;;;;;;;;;0.00;0.00;;;;;17.32;65.93;101654.59;5042118;28;45435;-84
2021/08/18 01:21:34;;;;;;;;;0.00;0.00;;;;;17.29;66.32;101651.09;5043307;28;46309;-85
2021/08/18 01:23:59;;;;;;;;;0.00;0.00;;;;;16.74;65.73;101556.63;5050187;28;45436;-85
2021/08/18 01:26:25;;;;;;;;;0.00;0.00;;;;;17.05;66.26;101601.19;5054747;28;45387;-84
2021/08/18 01:28:50;;;;;;;;;0.00;0.00;;;;;17.25;65.69;101636.19;5053282;28;45407;-85
2021/08/18 01:31:17;;;;;;;;;0.00;0.00;;;;;17.40;65.58;101654.53;5039466;28;46870;-85
2021/08/18 01:33:43;;;;;;;;;0.00;0.00;;;;;17.37;65.60;101637.88;5042189;28;45380;-85
2021/08/18 01:36:08;;;;;;;;;0.00;0.00;;;;;17.33;65.89;101637.91;5041114;28;45868;-84
2021/08/18 01:38:34;;;;;;;;;0.00;0.00;;;;;17.18;65.23;101602.03;5039139;28;45388;-85
2021/08/18 01:40:59;;;;;;;;;0.00;0.00;;;;;17.40;65.77;101635.25;5052898;28;46287;-85
2021/08/18 01:43:24;;;;;;;;;0.00;0.00;;;;;17.29;66.06;101625.66;5040752;28;45359;-85
2021/08/18 01:45:51;;;;;;;;;0.00;0.00;;;;;17.39;65.58;101637.00;5048676;28;45284;-85
2021/08/18 01:48:29;;;;;;;;;0.00;0.00;;;;;17.46;65.43;101643.97;5050270;28;45343;-85
2021/08/18 01:50:56;;;;;;;;;0.00;0.00;;;;;17.42;65.57;101626.44;5041648;28;45507;-85
2021/08/18 01:53:32;;;;;;;;;0.00;0.00;;;;;17.50;65.27;101639.56;5054011;28;45363;-86
2021/08/18 01:56:03;;;;;;;;;0.00;0.00;;;;;17.43;65.59;101635.22;5050931;28;45471;-85
2021/08/18 01:58:32;;;;;;;;;0.00;0.00;;;;;17.34;65.85;101642.28;5055548;28;45706;-86
2021/08/18 02:00:58;;;;;;;;;0.00;0.00;;;;;17.30;66.14;101639.69;5055607;28;47428;-85
2021/08/18 02:03:23;;;;;;;;;0.00;0.00;;;;;17.29;65.73;101637.94;5052398;28;46396;-84
2021/08/18 02:05:48;;;;;;;;;0.00;0.00;;;;;17.28;66.13;101642.34;5054002;28;47934;-85
2021/08/18 02:08:14;;;;;;;;;0.00;0.00;;;;;17.09;66.37;101607.34;5038540;28;45597;-85
2021/08/18 02:10:39;;;;;;;;;0.00;0.00;;;;;17.21;65.72;101628.31;5055577;28;45406;-85
2021/08/18 02:13:04;;;;;;;;;0.00;0.00;;;;;17.26;66.50;101641.47;5057069;28;45344;-85
2021/08/18 02:15:32;;;;;;;;;0.00;0.00;;;;;17.19;65.85;101630.09;5056047;28;45277;-85
2021/08/18 02:17:59;;;;;;;;;0.00;0.00;;;;;17.17;65.74;101615.19;5049734;28;45614;-85
2021/08/18 02:20:27;;;;;;;;;0.00;0.00;;;;;17.27;65.90;101637.06;5041783;28;45465;-85
2021/08/18 02:22:55;;;;;;;;;0.00;0.00;;;;;17.28;66.34;101631.81;5056151;28;45407;-85
2021/08/18 02:25:20;;;;;;;;;0.00;0.00;;;;;16.96;65.97;101567.91;5053515;28;45490;-85
2021/08/18 02:27:46;;;;;;;;;0.50;0.00;;;;;17.09;65.72;101586.31;5049533;28;45445;-85
2021/08/18 02:30:14;;;;;;;;;0.00;0.00;;;;;17.31;65.70;101623.00;5046567;28;46060;-86
2021/08/18 02:32:39;;;;;;;;;0.00;0.00;;;;;17.24;65.94;101622.16;5055089;28;45578;-86
2021/08/18 02:35:07;;;;;;;;;0.00;0.00;;;;;17.20;66.06;101623.94;5055783;28;45454;-85
2021/08/18 02:37:32;;;;;;;;;0.00;0.00;;;;;17.14;66.66;101615.19;5055036;28;45356;-85
2021/08/18 02:39:57;;;;;;;;;0.00;0.00;;;;;17.09;66.60;101612.59;5052594;28;45450;-85
2021/08/18 02:42:23;;;;;;;;;0.00;0.00;;;;;17.05;66.72;101611.69;5052658;28;45359;-85
2021/08/18 02:44:48;;;;;;;;;0.00;0.00;;;;;16.94;66.73;101593.31;5054323;28;45270;-85
2021/08/18 02:47:14;;;;;;;;;0.00;0.00;;;;;17.08;67.13;101624.88;5056563;28;45393;-85
2021/08/18 02:49:40;;;;;;;;;0.00;0.00;;;;;16.96;67.14;101617.88;5044522;28;46584;-84
2021/08/18 02:52:05;;;;;;;;;0.00;0.00;;;;;16.94;67.32;101618.78;5044448;28;45554;-85
2021/08/18 02:54:31;;;;;;;;;1.00;0.00;;;;;17.00;67.33;101625.75;5044822;28;45244;-85
2021/08/18 02:56:56;;;;;;;;;0.00;0.00;;;;;16.91;67.73;101605.63;5053146;28;45562;-85
2021/08/18 02:59:22;;;;;;;;;0.00;0.00;;;;;16.77;68.11;101596.03;5048898;28;45320;-85
2021/08/18 03:01:47;;;;;;;;;0.00;0.00;;;;;16.93;68.58;101623.16;5054840;28;45377;-85
2021/08/18 03:04:14;;;;;;;;;0.00;0.00;;;;;17.00;67.52;101623.13;5052826;28;45246;-85
2021/08/18 03:06:39;;;;;;;;;0.00;0.00;;;;;17.01;68.17;101625.75;5043478;28;45407;-85
2021/08/18 03:09:04;;;;;;;;;0.00;0.00;;;;;16.80;67.65;101575.00;5040064;28;56949;-85
2021/08/18 03:11:30;;;;;;;;;0.00;0.00;;;;;17.05;67.63;101618.72;5057247;28;45379;-87
2021/08/18 03:13:55;;;;;;;;;0.00;0.00;;;;;17.00;67.66;101607.34;5055107;28;46697;-84
2021/08/18 03:16:20;;;;;;;;;0.00;0.00;;;;;17.04;67.66;101616.97;5053071;28;48833;-85
2021/08/18 03:18:46;;;;;;;;;0.00;0.00;;;;;17.06;67.12;101621.38;5051898;28;46212;-85
2021/08/18 03:21:11;;;;;;;;;3.00;1.00;;;;;16.62;66.97;101560.16;5049597;28;53496;-84
2021/08/18 03:23:37;;;;;;;;;0.00;0.00;;;;;16.85;67.06;101599.50;5041350;28;45504;-85
2021/08/18 03:26:02;;;;;;;;;0.00;0.00;;;;;17.01;67.15;101625.75;5042073;28;45520;-85
2021/08/18 03:28:28;;;;;;;;;0.00;0.00;;;;;16.72;67.47;101563.63;5043703;28;46292;-85
2021/08/18 03:30:53;;;;;;;;;0.00;0.00;;;;;16.95;67.48;101599.47;5046206;28;45481;-84
2021/08/18 03:33:18;;;;;;;;;0.00;0.00;;;;;16.94;67.31;101590.69;5042478;28;45662;-85
2021/08/18 03:35:44;;;;;;;;;0.00;0.00;;;;;17.15;66.81;101616.97;5040531;28;45545;-85
2021/08/18 03:38:09;;;;;;;;;0.00;0.00;;;;;16.89;67.20;101568.81;5055286;28;45340;-86
2021/08/18 03:40:34;;;;;;;;;0.00;0.00;;;;;17.20;67.04;101612.53;5052620;28;45400;-85
2021/08/18 03:43:03;;;;;;;;;0.00;0.00;;;;;17.02;67.27;101585.41;5040429;28;47185;-84
2021/08/18 03:45:28;;;;;;;;;0.00;0.00;;;;;17.13;66.84;101602.94;5042625;28;45506;-85
2021/08/18 03:47:53;;;;;;;;;0.00;0.00;;;;;17.10;67.17;101594.16;5039018;28;45352;-85
2021/08/18 03:50:19;;;;;;;;;0.00;0.00;;;;;17.14;67.37;101609.94;5059803;28;45433;-85
2021/08/18 03:52:44;;;;;;;;;0.00;0.00;;;;;17.14;67.42;101615.19;5040729;28;45446;-84
2021/08/18 03:55:11;;;;;;;;;0.00;0.00;;;;;16.96;66.95;101581.06;5043516;28;45494;-84
2021/08/18 03:57:37;;;;;;;;;0.00;0.00;;;;;17.09;67.31;101612.59;5043086;28;46234;-85
2021/08/18 04:00:04;;;;;;;;;0.00;0.00;;;;;17.06;67.60;101608.22;5044127;28;45445;-85
2021/08/18 04:02:29;;;;;;;;;0.00;0.00;;;;;17.05;67.95;101609.06;5055424;28;45360;-85
2021/08/18 04:04:54;;;;;;;;;0.75;0.00;;;;;17.02;67.53;101605.56;5038596;28;50354;-84
2021/08/18 04:07:19;;;;;;;;;0.00;0.00;;;;;16.78;67.48;101566.22;5022484;28;47141;-84
2021/08/18 04:09:45;;;;;;;;;0.00;0.00;;;;;17.04;68.11;101609.97;5044846;28;54481;-84
2021/08/18 04:12:10;;;;;;;;;0.00;0.00;;;;;16.92;67.66;101588.97;5048775;28;60878;-84
2021/08/18 04:14:35;;;;;;;;;0.00;0.00;;;;;16.95;67.72;101600.34;5050532;28;45430;-85
2021/08/18 04:17:01;;;;;;;;;0.00;0.00;;;;;17.00;67.79;101617.88;5056528;28;57610;-84
2021/08/18 04:19:26;;;;;;;;;0.00;0.00;;;;;16.97;68.30;101613.50;5057000;28;45466;-84
2021/08/18 04:21:51;;;;;;;;;0.00;0.00;;;;;16.96;68.16;101603.84;5050682;28;45609;-84
2021/08/18 04:24:17;;;;;;;;;0.00;0.00;;;;;16.94;68.42;101603.84;5051179;28;45331;-84
2021/08/18 04:26:43;;;;;;;;;0.00;0.00;;;;;16.95;68.20;101613.50;5039622;28;45569;-84
2021/08/18 04:29:08;;;;;;;;;0.50;0.00;;;;;16.84;68.08;101602.13;5054185;28;45602;-85
2021/08/18 04:31:33;;;;;;;;;0.00;0.00;;;;;16.91;67.98;101613.53;5051788;28;45346;-85
2021/08/18 04:33:59;;;;;;;;;0.00;0.00;;;;;16.91;68.83;101614.38;5045804;28;45478;-85
2021/08/18 04:36:24;;;;;;;;;0.00;0.00;;;;;16.70;68.37;101578.53;5042107;28;45383;-84
2021/08/18 04:38:50;;;;;;;;;0.00;0.00;;;;;16.69;68.51;101564.50;5040381;28;45371;-84
2021/08/18 04:41:15;;;;;;;;;0.00;0.00;;;;;16.81;68.31;101574.09;5052922;28;58097;-84
2021/08/18 04:43:40;;;;;;;;;0.00;0.00;;;;;17.02;68.20;101619.59;5051452;28;45489;-84
2021/08/18 04:46:06;;;;;;;;;1.00;0.00;;;;;16.90;67.93;101591.59;5053441;28;45466;-85
2021/08/18 04:48:31;;;;;;;;;0.00;0.00;;;;;16.87;68.55;101593.38;5052540;28;64009;-84
2021/08/18 04:50:56;;;;;;;;;0.00;0.00;;;;;16.85;68.06;101591.63;5052974;28;45399;-84
2021/08/18 04:53:22;;;;;;;;;0.00;0.00;;;;;16.98;68.20;101612.63;5049315;28;45409;-84
2021/08/18 04:55:47;;;;;;;;;0.00;0.00;;;;;16.96;68.33;101607.34;5042583;28;45343;-84
2021/08/18 04:58:12;;;;;;;;;0.00;0.00;;;;;16.87;67.92;101586.34;5049245;28;45483;-83
2021/08/18 05:00:38;;;;;;;;;0.00;0.00;;;;;17.04;67.81;101609.06;5046905;28;45416;-85
2021/08/18 05:03:03;;;;;;;;;0.00;0.00;;;;;16.59;67.87;101536.50;5042690;28;45545;-84
2021/08/18 05:05:29;;;;;;;;;0.00;0.00;;;;;16.98;68.28;101604.72;5044648;28;48462;-83
2021/08/18 05:07:56;;;;;;;;;0.00;0.00;;;;;16.99;68.44;101595.94;5053143;28;45360;-80
2021/08/18 05:10:22;;;;;;;;;0.00;0.00;;;;;17.09;67.67;101609.97;5051615;28;45327;-84
2021/08/18 05:12:47;;;;;;;;;3.00;0.00;;;;;17.00;68.37;101594.19;5051261;28;45519;-84
2021/08/18 05:15:13;;;;;;;;;0.00;0.00;;;;;16.89;68.46;101575.81;5053146;28;45785;-84
2021/08/18 05:17:38;;;;;;;;;0.00;0.00;;;;;17.10;68.92;101612.56;5054285;28;45319;-85
2021/08/18 05:20:06;;;;;;;;;0.75;0.00;;;;;17.14;68.14;101617.81;5042280;28;45365;-85
2021/08/18 05:22:31;;;;;;;;;0.00;0.00;;;;;17.11;68.13;101621.34;5045112;28;45384;-85
2021/08/18 05:24:56;;;;;;;;;0.50;0.00;;;;;17.09;68.64;101620.50;5040209;28;46175;-85
2021/08/18 05:27:22;;;;;;;;;0.00;0.00;;;;;17.08;68.34;101621.38;5041991;28;57729;-84
2021/08/18 05:29:47;;;;;;;;;0.00;0.00;;;;;16.97;68.71;101613.50;5043723;28;45478;-85
2021/08/18 05:32:12;;;;;;;;;0.00;0.00;;;;;16.69;68.54;101567.13;5039658;28;45615;-85
2021/08/18 05:34:38;;;;;;;;;0.00;0.00;;;;;17.01;67.99;101623.13;5041215;28;45434;-85
2021/08/18 05:37:03;;;;;;;;;0.00;0.00;;;;;16.99;68.52;101610.88;5043099;28;56495;-85
2021/08/18 05:39:29;;;;;;;;;0.00;0.00;;;;;16.76;68.94;101577.63;5044791;28;45486;-85
2021/08/18 05:41:54;;;;;;;;;0.00;0.00;;;;;16.88;68.98;101603.91;5049380;28;45585;-85
2021/08/18 05:44:20;;;;;;;;;0.00;0.00;;;;;17.04;68.30;101630.13;5053363;28;46824;-84
2021/08/18 05:46:45;;;;;;;;;0.00;0.00;;;;;17.03;68.33;101617.84;5055124;28;45299;-84
2021/08/18 05:49:10;;;;;;;;;0.00;0.00;;;;;17.08;68.30;101624.00;5052799;28;45238;-84
2021/08/18 05:51:36;;;;;;;;;0.00;0.00;;;;;17.12;68.62;101627.50;5052472;28;45900;-84
2021/08/18 05:54:01;;;;;;;;;0.00;0.00;;;;;17.14;68.01;101629.22;5040999;28;45940;-85
2021/08/18 05:56:26;;;;;;;;;0.00;0.00;;;;;17.10;68.08;101636.25;5035185;28;48967;-84
2021/08/18 05:58:51;;;;;;;;;0.00;0.00;;;;;16.77;68.60;101566.22;5037027;28;45460;-82
2021/08/18 06:01:17;;;;;;;;;0.00;0.00;;;;;17.11;68.58;101616.09;5041659;28;49373;-83
2021/08/18 06:03:44;;;;;;;;;0.00;0.00;;;;;17.08;67.98;101600.31;5040332;28;68543;-83
2021/08/18 06:06:09;;;;;;;;;0.00;0.00;;;;;17.00;68.34;101579.28;5033463;28;45728;-82
2021/08/18 06:08:35;;;;;;;;;0.00;0.00;;;;;17.36;67.93;101629.13;5043265;28;45621;-83
2021/08/18 06:11:00;;;;;;;;;0.00;0.00;;;;;17.29;68.11;101630.91;5038417;28;45379;-83
2021/08/18 06:13:26;;;;;;;;;0.00;0.00;;;;;17.04;67.87;101569.63;5043755;28;45454;-84
2021/08/18 06:15:52;;;;;;;;;0.00;0.00;;;;;17.31;67.59;101599.34;5040752;28;45462;-83
2021/08/18 06:18:17;;;;;;;;;0.00;0.00;;;;;17.15;67.52;101580.13;5048696;28;46618;-83
2021/08/18 06:20:43;;;;;;;;;0.00;0.00;;;;;17.53;67.54;101636.94;5050595;28;45445;-82
2021/08/18 06:23:08;;;;;;;;;0.00;0.00;;;;;17.48;67.42;101639.59;5039210;28;45576;-82
2021/08/18 06:25:33;;;;;;;;;0.00;0.00;;;;;17.53;67.25;101643.94;5035989;28;45460;-85
2021/08/18 06:27:59;;;;;;;;;0.00;0.00;;;;;17.06;67.69;101566.13;5049689;28;45551;-84
2021/08/18 06:30:24;;;;;;;;;0.00;0.00;;;;;16.87;67.65;101553.94;5047602;28;45482;-84
2021/08/18 06:32:49;;;;;;;;;0.00;0.00;;;;;17.16;67.61;101601.16;5046460;28;47264;-83
2021/08/18 06:35:15;;;;;;;;;0.00;0.00;;;;;17.02;67.62;101577.53;5033058;28;45706;-82
2021/08/18 06:37:40;;;;;;;;;0.00;0.00;;;;;17.38;67.62;101619.47;5030608;28;48743;-83
2021/08/18 06:40:08;;;;;;;;;0.00;0.00;;;;;17.63;67.63;101645.63;5049085;28;45937;-82
2021/08/18 06:42:33;;;;;;;;;0.00;0.00;;;;;17.63;67.10;101645.63;5059181;27;45634;-82
2021/08/18 06:44:58;;;;;;;;;0.75;0.00;;;;;17.54;67.19;101632.53;5057949;28;45593;-82
2021/08/18 06:47:23;;;;;;;;;0.00;0.00;;;;;17.41;67.17;101632.59;5056126;28;45746;-82
2021/08/18 06:49:49;;;;;;;;;0.00;0.00;;;;;17.51;67.29;101650.97;5036761;28;45548;-82
2021/08/18 06:52:14;;;;;;;;;0.00;0.00;;;;;17.41;68.28;101640.50;5054635;28;48988;-82
2021/08/18 06:54:39;;;;;;;;;0.00;0.00;;;;;17.45;68.46;101651.88;5050920;28;57169;-84
2021/08/18 06:57:05;;;;;;;;;0.00;0.00;;;;;17.30;68.10;101635.28;5051405;28;45548;-83
2021/08/18 06:59:30;;;;;;;;;0.00;0.00;;;;;17.37;67.92;101648.41;5049155;28;45447;-82
2021/08/18 07:01:56;;;;;;;;;0.50;0.00;;;;;17.42;67.92;101647.50;5049732;28;45893;-81
2021/08/18 07:04:21;;;;;;;;;0.50;0.00;;;;;17.50;67.75;101651.84;5057784;28;45449;-85
2021/08/18 07:06:47;;;;;;;;;0.00;0.00;;;;;17.36;67.45;101621.22;5047327;28;45483;-79
2021/08/18 07:09:12;;;;;;;;;0.25;0.25;;;;;17.35;67.64;101607.22;5044173;28;45474;-81
2021/08/18 07:11:39;;;;;;;;;0.00;0.00;;;;;17.68;67.31;101649.13;5044236;28;45451;-82
2021/08/18 07:14:05;;;;;;;;;0.00;0.00;;;;;17.33;67.39;101592.28;5057479;28;45713;-82
2021/08/18 07:16:34;;;;;;;;;0.00;0.00;;;;;17.66;67.28;101642.09;5042707;28;45555;-79
2021/08/18 07:19:00;;;;;;;;;0.00;0.00;;;;;17.33;67.14;101576.50;5029691;28;45411;-81
2021/08/18 07:21:26;;;;;;;;;0.00;0.00;;;;;17.84;67.14;101644.63;5043467;28;47369;-80
2021/08/18 07:23:52;;;;;;;;;0.00;0.00;;;;;17.43;67.17;101569.44;5043141;28;45609;-81
2021/08/18 07:26:18;;;;;;;;;0.00;0.00;;;;;17.70;66.68;101626.28;5044297;28;45470;-78
2021/08/18 07:28:44;;;;;;;;;0.00;0.00;;;;;17.80;67.04;101634.97;5049377;28;45513;-83
2021/08/18 07:31:10;;;;;;;;;0.00;0.00;;;;;17.46;66.82;101566.78;5056991;27;46526;-83
2021/08/18 07:33:36;;;;;;;;;0.00;0.00;;;;;17.98;66.68;101641.00;5060186;28;45743;-83
2021/08/18 07:36:02;;;;;;;;;0.00;0.00;;;;;18.05;66.25;101641.81;5039255;28;45493;-82
2021/08/18 07:38:28;;;;;;;;;0.00;0.00;;;;;17.85;66.42;101612.13;5062833;28;45407;-80
2021/08/18 07:40:53;;;;;;;;;0.00;0.00;;;;;17.86;66.38;101599.84;5051415;28;46423;-84
2021/08/18 07:43:18;;;;;;;;;0.00;0.00;;;;;18.01;66.73;101621.66;5054729;28;45515;-82
2021/08/18 07:45:44;;;;;;;;;0.00;0.00;;;;;17.86;67.17;101589.31;5048699;28;45462;-80
2021/08/18 07:48:09;;;;;;;;;0.00;0.00;;;;;18.01;66.86;101609.34;5040238;28;45766;-80
2021/08/18 07:50:35;;;;;;;;;0.00;0.00;;;;;18.18;66.94;101647.88;5051097;28;46439;-81
2021/08/18 07:53:00;;;;;;;;;0.00;0.00;;;;;18.19;66.64;101647.88;5060131;28;45613;-80
2021/08/18 07:55:26;;;;;;;;;0.00;0.00;;;;;18.08;66.85;101623.34;5041708;28;45474;-79
2021/08/18 07:57:51;;;;;;;;;0.00;0.00;;;;;18.13;66.69;101632.09;5028675;28;45621;-80
2021/08/18 08:00:17;;;;;;;;;0.00;0.00;;;;;18.25;66.03;101643.44;5046786;28;45489;-79
2021/08/18 08:02:47;;;;;;;;;0.50;0.00;;;;;18.26;66.33;101643.44;5047186;28;46420;-79
2021/08/18 08:05:14;;;;;;;;;0.00;0.00;;;;;18.12;66.39;101617.19;5056980;27;45580;-80
2021/08/18 08:07:40;;;;;;;;;0.00;0.00;;;;;17.97;66.00;101597.97;5045139;28;45552;-83
2021/08/18 08:10:06;;;;;;;;;0.00;0.00;;;;;18.03;66.28;101596.16;5050301;28;45506;-79
2021/08/18 08:12:32;;;;;;;;;0.00;0.00;;;;;18.29;66.24;101646.03;5053697;28;45564;-80
2021/08/18 08:14:58;;;;;;;;;0.00;0.00;;;;;18.19;66.14;101639.97;5048001;27;45549;-81
2021/08/18 08:17:23;;;;;;;;;0.00;0.00;;;;;18.25;66.32;101643.44;5048006;28;45505;-81
2021/08/18 08:19:49;;;;;;;;;0.00;0.00;;;;;17.89;66.13;101583.13;5059681;28;45403;-80
2021/08/18 08:22:14;;;;;;;;;0.00;0.00;;;;;17.97;66.50;101603.25;5054455;28;45464;-82
2021/08/18 08:24:39;;;;;;;;;0.50;0.50;;;;;18.27;66.31;101628.47;5040682;28;45568;-80
2021/08/18 08:27:05;;;;;;;;;0.00;0.00;;;;;18.34;65.84;101641.59;5054087;28;45490;-79
2021/08/18 08:29:30;;;;;;;;;0.00;0.00;;;;;18.18;65.93;101626.81;5042374;28;47415;-81
2021/08/18 08:31:55;;;;;;;;;0.00;0.00;;;;;18.21;66.23;101625.03;5054813;28;47210;-82
2021/08/18 08:34:22;;;;;;;;;0.00;0.00;;;;;18.05;66.03;101592.66;5045763;28;49141;-81
2021/08/18 08:36:47;;;;;;;;;0.75;0.75;;;;;18.21;66.04;101626.78;5043653;28;45488;-79
2021/08/18 08:39:13;;;;;;;;;0.00;0.00;;;;;18.28;66.14;101641.63;5045637;28;46194;-87
2021/08/18 08:41:41;;;;;;;;;0.00;0.00;;;;;18.23;65.87;101646.94;5051225;28;45601;-81
2021/08/18 08:44:06;;;;;;;;;0.00;0.00;;;;;18.17;66.28;101633.84;5063334;28;45525;-83
2021/08/18 08:46:32;;;;;;;;;0.00;0.00;;;;;18.26;65.98;101646.06;5047610;28;45540;-81
2021/08/18 08:48:58;;;;;;;;;0.25;0.00;;;;;18.30;65.55;101639.88;5053675;28;45738;-80
2021/08/18 08:51:23;;;;;;;;;0.00;0.00;;;;;18.25;65.91;101631.13;5057903;28;45540;-83
2021/08/18 08:53:49;;;;;;;;;0.00;0.00;;;;;18.35;65.98;101658.28;5059012;28;45478;-88
2021/08/18 08:56:14;;;;;;;;;0.00;0.00;;;;;18.38;66.25;101657.38;5066148;28;45527;-89
2021/08/18 08:58:39;;;;;;;;;0.00;0.00;;;;;18.29;65.58;101642.53;5043992;28;47154;-79
2021/08/18 09:01:05;;;;;;;;;0.00;0.00;;;;;18.58;65.55;101655.41;5053172;28;48712;-79
2021/08/18 09:03:35;;;;;;;;;0.00;0.00;;;;;18.81;65.36;101662.19;5052960;28;45540;-79
2021/08/18 09:06:06;;;;;;;;;0.00;0.00;;;;;18.85;64.65;101663.94;5056175;28;45606;-79
2021/08/18 09:08:32;;;;;;;;;0.00;0.00;;;;;18.84;64.71;101656.03;5050628;28;45900;-79
2021/08/18 09:11:13;;;;;;;;;1.00;0.00;;;;;18.72;64.62;101628.03;5050416;28;45535;-80
2021/08/18 09:13:45;;;;;;;;;0.00;0.00;;;;;18.77;64.73;101652.56;5046553;28;45403;-80
2021/08/18 09:16:11;;;;;;;;;0.00;0.00;;;;;18.73;64.90;101643.84;5047030;28;45497;-80
2021/08/18 09:18:49;;;;;;;;;0.00;0.00;;;;;18.74;64.50;101627.13;5048972;27;45887;-81
2021/08/18 09:21:29;;;;;;;;;0.00;0.00;;;;;18.91;64.35;101657.69;5056567;28;45610;-80
2021/08/18 09:24:19;;;;;;;;;0.00;0.00;;;;;18.96;64.33;101658.50;5054305;28;45858;-81
2021/08/18 09:27:00;;;;;;;;;0.00;0.00;;;;;18.94;64.15;101625.13;5043181;28;45391;-79
2021/08/18 09:29:30;;;;;;;;;0.00;0.00;;;;;19.03;63.72;101618.88;5049577;28;45549;-80
2021/08/18 09:31:57;;;;;;;;;0.00;0.00;;;;;19.18;63.62;101655.66;5050818;28;46011;-81
2021/08/18 09:34:23;;;;;;;;;0.00;0.00;;;;;19.24;63.26;101647.63;5054764;28;45970;-80
2021/08/18 09:36:48;;;;;;;;;0.00;0.00;;;;;19.22;63.17;101633.59;5056367;28;45487;-82
2021/08/18 09:39:28;;;;;;;;;0.00;0.00;;;;;19.43;63.09;101647.41;5055539;28;57236;-79
2021/08/18 09:41:55;;;;;;;;;1.00;0.00;;;;;19.43;62.52;101647.41;5048862;28;45534;-79
2021/08/18 09:44:20;;;;;;;;;0.00;0.00;;;;;19.32;62.82;101655.47;5064697;28;47222;-80
2021/08/18 09:46:48;;;;;;;;;0.00;0.00;;;;;19.35;62.92;101649.25;5059352;28;45468;-80
2021/08/18 09:49:14;;;;;;;;;0.00;0.00;;;;;19.39;62.82;101656.25;5061256;28;46273;-80
2021/08/18 09:51:43;;;;;;;;;0.00;0.00;;;;;19.24;62.97;101621.25;5053602;28;45482;-80
2021/08/18 09:54:13;;;;;;;;;0.00;0.00;;;;;19.33;62.38;101641.34;5051744;28;45562;-81
2021/08/18 09:56:49;;;;;;;;;0.00;0.00;;;;;19.24;62.47;101642.34;5059595;27;45662;-81
2021/08/18 09:59:16;;;;;;;;;0.00;0.00;;;;;19.25;62.65;101643.25;5046525;28;45470;-83
2021/08/18 10:01:41;;;;;;;;;0.00;0.00;;;;;19.39;62.85;101643.06;5062081;28;45749;-81
2021/08/18 10:04:08;;;;;;;;;0.00;0.00;;;;;19.23;62.19;101611.59;5046202;28;45476;-80
2021/08/18 10:06:35;;;;;;;;;0.00;0.00;;;;;19.48;62.05;101636.78;5054280;28;45384;-79
2021/08/18 10:09:01;;;;;;;;;0.00;0.00;;;;;19.56;61.87;101632.25;5044422;28;47156;-77
2021/08/18 10:11:27;;;;;;;;;0.00;0.00;;;;;19.67;61.56;101623.28;5062540;28;45658;-79
2021/08/18 10:13:54;;;;;;;;;0.25;0.00;;;;;19.90;60.99;101637.91;5063922;28;45548;-78
2021/08/18 10:16:20;;;;;;;;;0.00;0.00;;;;;19.82;61.03;101635.38;5043062;28;45760;-78
2021/08/18 10:18:48;;;;;;;;;0.00;0.00;;;;;19.92;61.54;101638.75;5062714;28;45634;-80
2021/08/18 10:21:19;;;;;;;;;0.00;0.00;;;;;20.00;61.06;101636.88;5049111;28;45621;-79
2021/08/18 10:23:59;;;;;;;;;0.00;0.00;;;;;20.12;60.53;101636.66;5047341;28;45593;-79
2021/08/18 10:26:47;;;;;;;;;0.00;0.00;;;;;20.17;60.63;101628.66;5059238;28;45710;-79
2021/08/18 10:29:16;;;;;;;;;0.00;0.00;;;;;20.08;60.15;101618.25;5053695;28;46695;-82
2021/08/18 10:31:45;;;;;;;;;0.00;0.00;;;;;20.15;60.41;101637.53;5066668;28;45544;-81
2021/08/18 10:34:11;;;;;;;;;0.00;0.00;;;;;20.10;60.69;101637.59;5058568;28;45406;-81
2021/08/18 10:36:42;;;;;;;;;0.00;0.00;;;;;20.03;60.76;101628.88;5049979;28;45379;-80
2021/08/18 10:39:39;;;;;;;;;0.00;0.00;;;;;20.03;60.65;101622.75;5061412;27;46782;-77
2021/08/18 10:42:36;;;;;;;;;0.00;0.00;;;;;20.17;60.55;101636.59;5056338;28;45545;-76
2021/08/18 10:45:03;;;;;;;;;0.00;0.00;;;;;20.19;60.39;101615.44;5050737;28;45585;-76
2021/08/18 10:47:39;;;;;;;;;0.00;0.00;;;;;20.31;59.98;101624.91;5057080;28;45528;-77
2021/08/18 10:50:23;;;;;;;;;0.00;0.00;;;;;20.38;59.49;101627.41;5059051;28;46626;-81
2021/08/18 10:52:50;;;;;;;;;0.00;0.00;;;;;20.22;59.90;101584.50;5051171;28;45525;-81
2021/08/18 10:55:24;;;;;;;;;0.00;0.00;;;;;20.53;59.77;101624.50;5037144;28;45747;-82
2021/08/18 10:58:02;;;;;;;;;0.00;0.00;;;;;20.58;59.48;101617.34;5055679;28;45466;-76
2021/08/18 11:00:43;;;;;;;;;0.00;0.00;;;;;20.59;59.09;101617.34;5059168;28;45795;-77
2021/08/18 11:03:14;;;;;;;;;1.00;0.00;;;;;20.63;59.18;101615.47;5064659;27;45308;-76
2021/08/18 11:05:39;;;;;;;;;0.00;0.00;;;;;20.64;59.24;101617.22;5059082;28;45659;-81
2021/08/18 11:08:28;;;;;;;;;0.00;0.00;;;;;20.61;59.22;101617.31;5066334;28;45579;-83
2021/08/18 11:10:53;;;;;;;;;0.00;0.00;;;;;20.56;59.47;101616.50;5063192;28;46119;-80
2021/08/18 11:13:39;;;;;;;;;0.00;0.00;;;;;20.51;59.56;101606.91;5062851;27;45784;-79
2021/08/18 11:16:31;;;;;;;;;0.00;0.00;;;;;20.53;59.41;101601.56;5051366;28;45619;-81
2021/08/18 11:18:59;;;;;;;;;0.00;0.00;;;;;20.59;59.01;101596.19;5046014;28;45302;-81
2021/08/18 11:21:29;;;;;;;;;0.00;0.00;;;;;20.70;59.37;101600.38;5049346;28;46494;-81
2021/08/18 11:23:58;;;;;;;;;0.00;0.00;;;;;20.41;58.52;101557.72;5050739;28;45461;-82